Time;durP1;ratioP1;P1;durP2;ratioP2;P2;SDS_P1;SDS_P2;PMS_P1;PMS_P2;Temp;Humidity;BMP_temperature;BMP_pressure;BME280_temperature;BME280_humidity;BME280_pressure;Samples;Min_cycle;Max_cycle;Signal;HPM_P1;HPM_P2
2022/12/16 00:01:23;;;;;;;68.30;35.80;;;;;;;-1.67;75.37;98418.89;103490;1302;98478;-65
2022/12/16 00:03:53;;;;;;;69.60;34.40;;;;;;;-1.69;75.42;98414.07;103486;1301;111272;-66
2022/12/16 00:06:28;;;;;;;70.70;37.40;;;;;;;-1.72;75.34;98416.80;103374;1301;98023;-65
2022/12/16 00:08:58;;;;;;;71.90;36.10;;;;;;;-1.72;75.30;98416.96;103483;1296;107080;-65
2022/12/16 00:11:27;;;;;;;66.30;34.50;;;;;;;-1.71;75.46;98419.01;103476;1303;97989;-65
2022/12/16 00:13:55;;;;;;;67.20;34.80;;;;;;;-1.71;75.34;98417.81;103483;1294;97855;-67
2022/12/16 00:16:23;;;;;;;69.80;35.40;;;;;;;-1.70;75.40;98422.81;103463;1294;111456;-65
2022/12/16 00:18:51;;;;;;;64.70;34.80;;;;;;;-1.68;75.41;98416.32;103471;1294;97894;-66
2022/12/16 00:21:20;;;;;;;70.10;35.80;;;;;;;-1.68;75.45;98416.48;103507;1302;108116;-66
2022/12/16 00:23:48;;;;;;;67.40;35.10;;;;;;;-1.66;75.33;98414.17;103458;1300;97973;-66
2022/12/16 00:26:16;;;;;;;68.10;35.80;;;;;;;-1.65;75.57;98418.66;103502;1296;97959;-66
2022/12/16 00:28:44;;;;;;;64.70;34.30;;;;;;;-1.62;75.77;98420.65;103332;1302;111612;-65
2022/12/16 00:31:12;;;;;;;69.40;36.10;;;;;;;-1.60;75.56;98421.45;103470;1302;98024;-65
2022/12/16 00:33:40;;;;;;;71.30;37.00;;;;;;;-1.59;75.36;98416.02;103411;1284;108145;-66
2022/12/16 00:36:09;;;;;;;66.60;36.00;;;;;;;-1.57;75.64;98408.31;103466;1301;95215;-65
2022/12/16 00:38:37;;;;;;;66.80;33.50;;;;;;;-1.55;75.61;98405.63;103497;1298;97970;-66
2022/12/16 00:41:05;;;;;;;69.80;36.80;;;;;;;-1.51;75.70;98413.14;103476;1292;112106;-65
2022/12/16 00:43:33;;;;;;;66.70;35.70;;;;;;;-1.48;75.63;98414.79;103517;1298;95138;-65
2022/12/16 00:46:02;;;;;;;69.10;35.10;;;;;;;-1.46;75.62;98415.27;103466;1291;108077;-66
2022/12/16 00:48:30;;;;;;;64.50;33.80;;;;;;;-1.44;75.68;98422.30;103468;1302;98069;-66
2022/12/16 00:50:58;;;;;;;63.70;32.30;;;;;;;-1.42;75.58;98418.06;103469;1297;97859;-65
2022/12/16 00:53:27;;;;;;;61.30;32.30;;;;;;;-1.42;75.51;98414.03;103330;1302;111699;-65
2022/12/16 00:56:07;;;;;;;62.60;32.40;;;;;;;-1.40;75.74;98411.38;103342;1300;95170;-65
2022/12/16 00:58:36;;;;;;;62.50;32.00;;;;;;;-1.38;75.95;98404.16;103313;1301;107411;-65
2022/12/16 01:01:05;;;;;;;59.90;33.30;;;;;;;-1.35;75.93;98404.77;103300;1300;98107;-67
2022/12/16 01:03:34;;;;;;;60.10;32.10;;;;;;;-1.32;75.88;98409.20;103315;1302;97936;-65
2022/12/16 01:06:11;;;;;;;61.20;32.50;;;;;;;-1.29;75.89;98405.79;103505;1301;111122;-65
2022/12/16 01:08:47;;;;;;;51.40;28.30;;;;;;;-1.27;75.75;98397.55;103360;1297;97860;-65
2022/12/16 01:11:18;;;;;;;52.10;28.20;;;;;;;-1.26;75.90;98391.95;103472;1296;107379;-64
2022/12/16 01:13:50;;;;;;;57.20;29.70;;;;;;;-1.24;75.92;98389.25;103479;1301;98012;-65
2022/12/16 01:16:19;;;;;;;53.60;29.00;;;;;;;-1.22;75.86;98395.25;103502;1297;97861;-65
2022/12/16 01:18:47;;;;;;;51.60;28.70;;;;;;;-1.20;75.91;98392.06;103498;1298;110079;-64
2022/12/16 01:21:16;;;;;;;52.40;28.50;;;;;;;-1.19;76.04;98389.59;103524;1297;97965;-65
2022/12/16 01:23:46;;;;;;;55.60;29.30;;;;;;;-1.17;75.93;98388.66;103499;1291;107963;-65
2022/12/16 01:26:17;;;;;;;53.90;30.00;;;;;;;-1.15;76.01;98382.31;103476;1300;95224;-65
2022/12/16 01:28:48;;;;;;;52.10;28.40;;;;;;;-1.12;75.98;98376.30;103530;1295;97874;-66
2022/12/16 01:31:17;;;;;;;53.30;28.60;;;;;;;-1.10;76.03;98369.82;103492;1297;111208;-65
2022/12/16 01:33:47;;;;;;;56.10;29.50;;;;;;;-1.08;75.97;98368.30;103346;1298;97922;-65
2022/12/16 01:36:15;;;;;;;51.40;28.50;;;;;;;-1.05;76.02;98365.98;103317;1284;107144;-65
2022/12/16 01:38:43;;;;;;;51.20;28.70;;;;;;;-1.05;76.00;98363.00;103325;1302;97876;-65
2022/12/16 01:41:14;;;;;;;52.30;29.50;;;;;;;-1.04;76.01;98367.14;103477;1308;97878;-65
2022/12/16 01:43:45;;;;;;;53.20;30.40;;;;;;;-1.01;76.02;98368.98;103504;1296;111297;-64
2022/12/16 01:46:13;;;;;;;54.60;31.00;;;;;;;-1.00;76.15;98362.64;103505;1293;96948;-64
2022/12/16 01:49:03;;;;;;;52.00;30.40;;;;;;;-0.98;76.16;98360.65;103526;1302;107670;-65
2022/12/16 01:51:37;;;;;;;54.10;29.50;;;;;;;-0.98;76.04;98357.00;103303;1300;98006;-64
2022/12/16 01:54:11;;;;;;;48.90;29.20;;;;;;;-0.96;76.11;98345.11;103312;1284;97905;-65
2022/12/16 01:56:46;;;;;;;51.90;28.90;;;;;;;-0.94;76.02;98337.17;103323;1291;111264;-65
2022/12/16 01:59:17;;;;;;;50.80;28.00;;;;;;;-0.91;76.12;98336.91;103316;1294;97903;-65
2022/12/16 02:01:45;;;;;;;48.30;26.30;;;;;;;-0.90;76.16;98331.10;103276;1300;108229;-64
2022/12/16 02:04:14;;;;;;;46.40;26.50;;;;;;;-0.88;76.21;98331.75;103309;1302;97863;-65
2022/12/16 02:06:42;;;;;;;47.20;27.40;;;;;;;-0.88;76.14;98335.23;103390;1300;97958;-65
2022/12/16 02:09:14;;;;;;;53.00;29.30;;;;;;;-0.86;76.20;98339.34;103490;1292;111774;-66
2022/12/16 02:11:48;;;;;;;51.40;27.60;;;;;;;-0.85;76.14;98335.13;103496;1305;97962;-65
2022/12/16 02:14:45;;;;;;;48.30;26.50;;;;;;;-0.83;76.31;98333.84;103362;1294;106958;-65
2022/12/16 02:17:25;;;;;;;50.70;28.60;;;;;;;-0.81;76.27;98330.10;103496;1302;95142;-65
2022/12/16 02:20:28;;;;;;;49.70;28.20;;;;;;;-0.80;76.28;98326.55;103488;1298;97890;-67
2022/12/16 02:23:36;;;;;;;50.50;27.00;;;;;;;-0.80;76.30;98324.98;103491;1295;111447;-65
2022/12/16 02:26:32;;;;;;;42.90;24.00;;;;;;;-0.79;76.35;98324.42;103282;1300;96822;-65
2022/12/16 02:29:22;;;;;;;48.50;26.70;;;;;;;-0.80;76.28;98315.76;103241;1300;107994;-65
2022/12/16 02:31:53;;;;;;;48.00;25.30;;;;;;;-0.81;76.44;98313.22;103267;1296;98073;-65
2022/12/16 02:34:37;;;;;;;43.00;24.50;;;;;;;-0.82;76.34;98308.38;103540;1295;96939;-65
2022/12/16 02:37:27;;;;;;;43.60;24.30;;;;;;;-0.83;76.40;98300.05;103529;1298;111466;-65
2022/12/16 02:39:59;;;;;;;43.00;23.30;;;;;;;-0.83;76.42;98296.92;103528;1297;97645;-65
2022/12/16 02:42:39;;;;;;;43.80;24.10;;;;;;;-0.83;76.62;98290.98;103547;1285;108376;-65
2022/12/16 02:45:18;;;;;;;45.30;24.70;;;;;;;-0.80;76.53;98290.36;103539;1293;97970;-64
2022/12/16 02:47:46;;;;;;;39.20;21.50;;;;;;;-0.77;76.63;98286.41;103524;1296;97859;-65
2022/12/16 02:50:20;;;;;;;43.90;24.20;;;;;;;-0.73;76.64;98284.33;103363;1301;111622;-64
2022/12/16 02:52:49;;;;;;;;;;;;;;;-0.70;76.60;98283.52;103336;1294;96511;-66
2022/12/16 02:55:19;;;;;;;36.60;20.10;;;;;;;-0.69;76.77;98282.81;103321;1302;108371;-65
2022/12/16 02:58:15;;;;;;;39.70;21.90;;;;;;;-0.66;76.70;98280.77;103413;1300;97950;-67
2022/12/16 03:01:18;;;;;;;39.50;22.30;;;;;;;-0.63;76.69;98276.27;103337;1285;96930;-66
2022/12/16 03:04:11;;;;;;;36.20;21.20;;;;;;;-0.61;76.72;98266.07;103294;1300;111891;-65
2022/12/16 03:06:44;;;;;;;38.40;20.60;;;;;;;-0.58;76.68;98261.27;103305;1300;97756;-65
2022/12/16 03:09:18;;;;;;;37.50;20.50;;;;;;;-0.54;76.71;98261.14;103308;1302;107514;-65
2022/12/16 03:11:47;;;;;;;;;;;;;;;-0.52;76.72;98256.67;103323;1300;95543;-65
2022/12/16 03:14:18;;;;;;;36.00;19.00;;;;;;;-0.50;76.72;98252.95;103304;1300;97878;-65
2022/12/16 03:16:48;;;;;;;38.90;19.30;;;;;;;-0.48;76.80;98246.61;103303;1292;111422;-65
2022/12/16 03:19:18;;;;;;;34.80;18.90;;;;;;;-0.45;76.81;98244.39;103328;1295;97895;-64
2022/12/16 03:22:11;;;;;;;34.20;19.00;;;;;;;-0.43;76.82;98233.90;103282;1300;107561;-65
2022/12/16 03:24:40;;;;;;;32.60;17.10;;;;;;;-0.42;76.73;98225.33;103309;1294;97905;-66
2022/12/16 03:27:19;;;;;;;32.00;17.30;;;;;;;-0.42;76.85;98224.05;103436;1290;97876;-65
2022/12/16 03:30:05;;;;;;;34.10;17.70;;;;;;;-0.40;76.79;98219.10;103306;1302;111869;-64
2022/12/16 03:32:36;;;;;;;31.50;16.10;;;;;;;-0.39;76.93;98216.42;103272;1301;97890;-65
2022/12/16 03:35:18;;;;;;;31.50;17.10;;;;;;;-0.39;76.86;98208.96;103304;1302;108133;-65
2022/12/16 03:37:51;;;;;;;32.40;16.50;;;;;;;-0.39;76.90;98210.02;103477;1300;98499;-66
2022/12/16 03:40:21;;;;;;;31.80;16.90;;;;;;;-0.37;76.83;98206.79;103477;1294;97885;-65
2022/12/16 03:42:52;;;;;;;33.10;17.00;;;;;;;-0.36;76.83;98199.79;103516;1300;111156;-65
2022/12/16 03:45:25;;;;;;;33.10;17.00;;;;;;;-0.35;76.75;98202.69;103488;1300;97927;-65
2022/12/16 03:47:57;;;;;;;32.40;16.30;;;;;;;-0.32;76.97;98200.81;103465;1294;108229;-65
2022/12/16 03:50:35;;;;;;;30.70;16.90;;;;;;;-0.29;76.93;98198.95;103495;1292;95342;-65
2022/12/16 03:53:04;;;;;;;32.80;17.90;;;;;;;-0.26;77.05;98197.09;103404;1300;97876;-65
2022/12/16 03:55:33;;;;;;;30.30;15.30;;;;;;;-0.23;77.07;98191.93;103372;1292;110997;-65
2022/12/16 03:58:01;;;;;;;29.10;15.40;;;;;;;-0.21;76.93;98184.52;103333;1295;95158;-64
2022/12/16 04:00:29;;;;;;;27.80;14.20;;;;;;;-0.20;76.98;98181.33;103316;1300;107749;-65
2022/12/16 04:02:57;;;;;;;27.30;14.20;;;;;;;-0.18;77.17;98172.89;103304;1293;97912;-65
2022/12/16 04:05:26;;;;;;;29.30;15.70;;;;;;;-0.17;77.08;98167.59;103340;1295;98553;-66
2022/12/16 04:07:54;;;;;;;28.30;14.00;;;;;;;-0.16;77.03;98161.98;103483;1294;111680;-66
2022/12/16 04:24:29;;;;;;;27.40;14.70;;;;;;;-0.09;77.30;98131.72;103337;1298;97915;-64
2022/12/16 04:34:24;;;;;;;26.80;14.20;;;;;;;-0.04;77.24;98121.77;103277;1301;95306;-66
